createdAt,value
2023-01-22T00:01:35.160Z,85.15
2023-01-22T00:04:01.920Z,85.07
2023-01-22T00:06:28.795Z,85.25
2023-01-22T00:08:55.602Z,85.04
2023-01-22T00:11:22.357Z,85.17
2023-01-22T00:13:49.204Z,85.28
2023-01-22T00:16:18.788Z,84.94
2023-01-22T00:18:45.467Z,85.13
2023-01-22T00:21:13.137Z,85.36
2023-01-22T00:23:40.687Z,85.02
2023-01-22T00:26:13.048Z,85.17
2023-01-22T00:28:41.869Z,85.44
2023-01-22T00:31:10.460Z,85.10
2023-01-22T00:33:38.995Z,85.38
2023-01-22T00:36:11.599Z,85.27
2023-01-22T00:38:38.584Z,84.99
2023-01-22T00:41:07.249Z,85.40
2023-01-22T00:43:35.871Z,85.15
2023-01-22T00:46:02.554Z,85.33
2023-01-22T00:48:29.201Z,85.22
2023-01-22T00:50:56.163Z,85.18
2023-01-22T00:53:22.934Z,85.02
2023-01-22T00:55:52.647Z,85.39
2023-01-22T00:58:20.031Z,85.16
2023-01-22T01:00:47.317Z,85.27
2023-01-22T01:03:27.082Z,85.35
2023-01-22T01:06:15.838Z,85.59
2023-01-22T01:08:43.515Z,85.54
2023-01-22T01:11:14.717Z,85.57
2023-01-22T01:13:43.221Z,85.48
2023-01-22T01:16:31.226Z,85.75
2023-01-22T01:19:03.487Z,85.50
2023-01-22T01:21:31.480Z,85.55
2023-01-22T01:23:59.505Z,85.82
2023-01-22T01:26:26.786Z,85.85
2023-01-22T01:28:53.759Z,85.37
2023-01-22T01:31:22.770Z,85.45
2023-01-22T01:33:50.045Z,85.54
2023-01-22T01:36:35.438Z,85.50
2023-01-22T01:39:06.719Z,85.80
2023-01-22T01:41:33.583Z,85.70
2023-01-22T01:44:13.100Z,85.67
2023-01-22T01:46:44.494Z,85.45
2023-01-22T01:49:22.447Z,85.26
2023-01-22T01:51:50.343Z,85.48
2023-01-22T01:54:18.011Z,85.29
2023-01-22T01:56:50.544Z,85.25
2023-01-22T01:59:20.159Z,84.91
2023-01-22T02:01:52.969Z,85.18
2023-01-22T02:04:20.555Z,84.79
2023-01-22T02:06:47.274Z,84.63
2023-01-22T02:09:15.127Z,84.71
2023-01-22T02:11:42.663Z,84.83
2023-01-22T02:14:16.424Z,84.46
2023-01-22T02:16:43.213Z,84.40
2023-01-22T02:19:10.244Z,84.52
2023-01-22T02:21:42.841Z,84.42
2023-01-22T02:24:14.822Z,84.31
2023-01-22T02:26:44.212Z,84.64
2023-01-22T02:29:12.996Z,84.20
2023-01-22T02:31:41.187Z,84.18
2023-01-22T02:34:09.412Z,84.45
2023-01-22T02:36:37.872Z,84.38
2023-01-22T02:39:05.093Z,84.46
2023-01-22T02:41:33.321Z,84.13
2023-01-22T02:44:00.380Z,84.18
2023-01-22T02:46:27.148Z,84.14
2023-01-22T02:48:54.164Z,84.19
2023-01-22T02:51:20.966Z,83.92
2023-01-22T02:53:47.703Z,83.66
2023-01-22T02:56:14.709Z,84.01
2023-01-22T02:58:41.523Z,83.85
2023-01-22T03:01:20.892Z,83.71
2023-01-22T03:04:11.036Z,83.94
2023-01-22T03:06:40.635Z,84.10
2023-01-22T03:09:08.306Z,83.71
2023-01-22T03:11:37.172Z,83.82
2023-01-22T03:14:22.942Z,83.74
2023-01-22T03:17:08.272Z,83.67
2023-01-22T03:19:53.511Z,83.95
2023-01-22T03:22:20.648Z,83.84
2023-01-22T03:24:52.163Z,83.82
2023-01-22T03:27:21.527Z,83.71
2023-01-22T03:29:48.551Z,83.50
2023-01-22T03:32:15.388Z,83.92
2023-01-22T03:34:42.356Z,83.78
2023-01-22T03:37:09.954Z,83.53
2023-01-22T03:39:37.730Z,83.96
2023-01-22T03:42:04.713Z,83.80
2023-01-22T03:44:31.533Z,83.50
2023-01-22T03:46:58.531Z,83.66
2023-01-22T03:49:25.502Z,83.56
2023-01-22T03:51:52.245Z,83.50
2023-01-22T03:54:19.072Z,83.43
2023-01-22T03:56:46.308Z,83.86
2023-01-22T03:59:13.158Z,83.56
2023-01-22T04:01:39.835Z,83.66
2023-01-22T04:04:06.832Z,83.70
2023-01-22T04:06:33.595Z,83.60
2023-01-22T04:09:00.285Z,83.50
2023-01-22T04:11:27.083Z,83.68
2023-01-22T04:13:55.249Z,83.58
2023-01-22T04:16:21.942Z,83.73
2023-01-22T04:18:48.932Z,83.57
2023-01-22T04:21:15.732Z,83.44
2023-01-22T04:23:42.385Z,83.42
2023-01-22T04:26:09.414Z,83.32
2023-01-22T04:33:19.879Z,83.55
2023-01-22T04:36:46.318Z,83.39
2023-01-22T04:39:13.118Z,83.62
2023-01-22T04:41:39.808Z,83.73
2023-01-22T04:44:06.476Z,83.44
2023-01-22T04:46:33.357Z,83.42
2023-01-22T04:49:00.129Z,83.67
2023-01-22T04:51:26.909Z,83.66
2023-01-22T04:53:53.991Z,83.53
2023-01-22T04:56:20.770Z,83.44
2023-01-22T04:58:50.028Z,83.73
2023-01-22T05:01:16.836Z,83.49
2023-01-22T05:03:43.556Z,83.50
2023-01-22T05:06:10.402Z,83.46
2023-01-22T05:08:37.208Z,83.56
2023-01-22T05:11:04.216Z,83.81
2023-01-22T05:13:30.872Z,83.72
2023-01-22T05:15:57.754Z,83.68
2023-01-22T05:18:24.588Z,83.67
2023-01-22T05:20:51.300Z,83.97
2023-01-22T05:23:18.231Z,84.01
2023-01-22T05:25:49.260Z,83.93
2023-01-22T05:28:16.243Z,83.76
2023-01-22T05:30:43.122Z,83.80
2023-01-22T05:33:11.402Z,83.79
2023-01-22T05:35:38.351Z,83.74
2023-01-22T05:38:05.148Z,83.97
2023-01-22T05:40:31.911Z,83.97
2023-01-22T05:42:58.768Z,84.34
2023-01-22T05:45:25.460Z,84.05
2023-01-22T05:47:53.829Z,84.31
2023-01-22T05:50:22.103Z,84.24
2023-01-22T05:52:53.664Z,84.56
2023-01-22T05:55:20.395Z,84.40
2023-01-22T05:57:47.740Z,84.23
2023-01-22T06:00:15.414Z,84.40
2023-01-22T06:02:42.413Z,84.37
2023-01-22T06:05:09.535Z,84.38
2023-01-22T06:07:36.347Z,84.62
2023-01-22T06:10:03.286Z,84.68
2023-01-22T06:12:30.131Z,85.05
2023-01-22T06:14:56.909Z,84.72
2023-01-22T06:17:23.659Z,84.99
2023-01-22T06:19:50.363Z,85.07
2023-01-22T06:22:17.185Z,85.12
2023-01-22T06:24:43.966Z,85.06
2023-01-22T06:27:10.727Z,85.13
2023-01-22T06:29:39.982Z,84.96
2023-01-22T06:32:06.939Z,85.03
2023-01-22T06:34:33.663Z,85.01
2023-01-22T06:37:00.677Z,85.29
2023-01-22T06:39:27.392Z,85.14
2023-01-22T06:41:54.242Z,85.07
2023-01-22T06:44:21.052Z,85.42
2023-01-22T06:46:47.994Z,85.20
2023-01-22T06:49:14.874Z,85.18
2023-01-22T06:51:42.103Z,85.22
2023-01-22T06:54:12.482Z,85.13
2023-01-22T06:56:39.223Z,85.13
2023-01-22T06:59:06.030Z,85.50
2023-01-22T07:01:32.955Z,85.29
2023-01-22T07:03:59.699Z,85.39
2023-01-22T07:06:26.533Z,85.30
2023-01-22T07:08:54.310Z,85.45
2023-01-22T07:11:21.008Z,85.65
2023-01-22T07:13:47.787Z,85.71
2023-01-22T07:16:14.622Z,85.84
2023-01-22T07:18:41.267Z,85.88
2023-01-22T07:21:08.211Z,85.44
2023-01-22T07:23:35.088Z,85.44
2023-01-22T07:26:01.745Z,85.60
2023-01-22T07:28:28.559Z,85.67
2023-01-22T07:30:57.164Z,85.71
2023-01-22T07:33:23.895Z,85.76
2023-01-22T07:35:57.656Z,85.79
2023-01-22T07:38:27.226Z,85.67
2023-01-22T07:40:53.861Z,85.59
2023-01-22T07:43:20.648Z,85.62
2023-01-22T07:45:47.328Z,86.12
2023-01-22T07:48:14.041Z,86.00
2023-01-22T07:50:41.064Z,86.29
2023-01-22T07:53:09.656Z,86.37
2023-01-22T07:55:36.290Z,86.47
2023-01-22T07:58:05.607Z,86.50
2023-01-22T08:00:35.363Z,86.63
2023-01-22T08:03:05.978Z,86.64
2023-01-22T08:05:33.013Z,86.61
2023-01-22T08:07:59.737Z,87.13
2023-01-22T08:10:26.876Z,87.32
2023-01-22T08:12:53.655Z,87.20
2023-01-22T08:15:21.309Z,87.41
2023-01-22T08:17:51.356Z,87.50
2023-01-22T08:20:18.606Z,87.58
2023-01-22T08:22:45.632Z,87.76
2023-01-22T08:25:12.978Z,88.08
2023-01-22T08:27:39.829Z,88.00
2023-01-22T08:30:08.852Z,88.24
2023-01-22T08:32:35.764Z,88.54
2023-01-22T08:35:02.516Z,88.58
2023-01-22T08:37:29.229Z,88.69
2023-01-22T08:39:56.424Z,88.53
2023-01-22T08:42:23.172Z,88.73
2023-01-22T08:44:49.809Z,88.91
2023-01-22T08:47:16.627Z,89.20
2023-01-22T08:49:43.372Z,89.32
2023-01-22T08:52:12.686Z,89.05
2023-01-22T08:54:39.451Z,89.30
2023-01-22T08:57:06.244Z,89.32
2023-01-22T08:59:32.910Z,89.63
2023-01-22T09:02:00.061Z,89.40
2023-01-22T09:04:27.124Z,89.38
2023-01-22T09:06:53.885Z,89.51
2023-01-22T09:09:20.907Z,89.88
2023-01-22T09:11:47.646Z,89.48
2023-01-22T09:14:14.670Z,89.69
2023-01-22T09:16:41.564Z,89.90
2023-01-22T09:19:08.301Z,89.82
2023-01-22T09:21:37.435Z,90.06
2023-01-22T09:24:05.541Z,89.74
2023-01-22T09:26:33.004Z,89.76
2023-01-22T09:29:01.151Z,90.02
2023-01-22T09:31:28.275Z,90.13
2023-01-22T09:33:55.832Z,90.02
2023-01-22T09:36:22.579Z,90.21
2023-01-22T09:38:49.313Z,89.73
2023-01-22T09:41:27.217Z,90.01
2023-01-22T09:44:14.246Z,90.12
2023-01-22T09:46:47.533Z,89.80
2023-01-22T09:49:20.161Z,89.81
2023-01-22T09:52:02.300Z,90.17
2023-01-22T09:54:30.887Z,90.13
2023-01-22T09:57:00.455Z,89.77
2023-01-22T09:59:34.500Z,89.77
2023-01-22T10:02:12.559Z,89.85
2023-01-22T10:04:46.983Z,89.83
2023-01-22T10:07:27.147Z,89.95
2023-01-22T10:09:58.869Z,89.99
2023-01-22T10:12:29.295Z,89.63
2023-01-22T10:14:56.564Z,89.52
2023-01-22T10:17:29.997Z,89.81
2023-01-22T10:20:02.827Z,89.58
2023-01-22T10:22:29.468Z,89.39
2023-01-22T10:24:57.891Z,89.67
2023-01-22T10:27:42.013Z,89.54
2023-01-22T10:30:14.524Z,89.76
2023-01-22T10:32:41.930Z,89.44
2023-01-22T10:35:11.414Z,89.18
2023-01-22T10:37:51.183Z,89.13
2023-01-22T10:40:22.878Z,88.99
2023-01-22T10:43:11.120Z,89.35
2023-01-22T10:45:38.690Z,89.23
2023-01-22T10:48:12.631Z,88.94
2023-01-22T10:50:39.908Z,89.20
2023-01-22T10:53:20.875Z,89.14
2023-01-22T10:55:53.711Z,88.63
2023-01-22T10:58:21.958Z,88.94
2023-01-22T11:01:21.936Z,88.89
2023-01-22T11:03:48.791Z,88.91
2023-01-22T11:06:32.425Z,88.96
2023-01-22T11:09:20.877Z,88.74
2023-01-22T11:11:56.648Z,88.48
2023-01-22T11:14:33.220Z,88.64
2023-01-22T11:17:10.026Z,88.81
2023-01-22T11:19:43.616Z,88.71
2023-01-22T11:22:22.291Z,88.30
2023-01-22T11:24:49.395Z,88.44
2023-01-22T11:27:28.266Z,88.33
2023-01-22T11:30:10.531Z,88.57
2023-01-22T11:32:55.231Z,88.71
2023-01-22T11:35:23.005Z,88.34
2023-01-22T11:38:20.481Z,88.72
2023-01-22T11:40:59.392Z,88.47
2023-01-22T11:43:32.806Z,88.42
2023-01-22T11:46:22.544Z,88.69
2023-01-22T11:49:07.851Z,88.74
2023-01-22T11:52:06.843Z,88.62
2023-01-22T11:54:49.087Z,88.80
2023-01-22T11:57:27.741Z,88.67
2023-01-22T12:00:20.840Z,88.39
2023-01-22T12:03:09.710Z,88.41
2023-01-22T12:05:48.454Z,88.77
2023-01-22T12:08:21.372Z,88.39
2023-01-22T12:10:57.545Z,88.43
2023-01-22T12:14:02.878Z,88.62
2023-01-22T12:16:41.123Z,88.45
2023-01-22T12:19:26.894Z,88.36
2023-01-22T12:22:25.174Z,88.59
2023-01-22T12:25:12.672Z,88.11
2023-01-22T12:27:47.415Z,88.54
2023-01-22T12:30:45.636Z,88.24
2023-01-22T12:33:20.444Z,88.35
2023-01-22T12:35:51.936Z,88.40
2023-01-22T12:38:35.776Z,88.43
2023-01-22T12:41:31.802Z,88.44
2023-01-22T12:44:24.371Z,88.45
2023-01-22T12:47:03.980Z,88.75
2023-01-22T12:49:30.742Z,88.42
2023-01-22T12:52:00.674Z,88.74
2023-01-22T12:54:30.649Z,88.74
2023-01-22T12:57:12.246Z,88.53
2023-01-22T12:59:39.278Z,88.83
2023-01-22T13:02:26.550Z,88.98
2023-01-22T13:04:54.471Z,88.75
2023-01-22T13:07:34.190Z,88.63
2023-01-22T13:10:20.270Z,88.68
2023-01-22T13:12:50.621Z,88.94
2023-01-22T13:15:21.786Z,89.07
2023-01-22T13:18:15.109Z,88.72
2023-01-22T13:21:04.265Z,88.63
2023-01-22T13:23:32.661Z,88.78
2023-01-22T13:26:00.308Z,89.26
2023-01-22T13:28:28.460Z,88.82
2023-01-22T13:31:04.726Z,88.95
2023-01-22T13:33:32.427Z,88.87
2023-01-22T13:36:09.201Z,89.19
2023-01-22T13:38:36.134Z,88.99
2023-01-22T13:41:13.184Z,88.81
2023-01-22T13:43:42.094Z,89.02
2023-01-22T13:46:13.908Z,88.97
2023-01-22T13:48:41.696Z,88.85
2023-01-22T13:51:19.823Z,89.10
2023-01-22T13:53:52.584Z,88.87
2023-01-22T13:56:23.001Z,88.85
2023-01-22T13:58:50.567Z,88.86
2023-01-22T14:01:32.684Z,88.89
2023-01-22T14:04:05.735Z,88.87
2023-01-22T14:06:44.229Z,88.96
2023-01-22T14:09:10.992Z,88.69
2023-01-22T14:11:39.502Z,88.58
2023-01-22T14:14:20.178Z,88.79
2023-01-22T14:16:47.330Z,88.78
2023-01-22T14:19:14.491Z,88.88
2023-01-22T14:21:42.034Z,88.66
2023-01-22T14:24:09.252Z,88.97
2023-01-22T14:26:36.203Z,88.75
2023-01-22T14:29:03.182Z,88.74
2023-01-22T14:31:29.955Z,89.08
2023-01-22T14:33:56.691Z,89.00
2023-01-22T14:36:23.699Z,89.20
2023-01-22T14:38:53.559Z,89.30
2023-01-22T14:41:20.298Z,89.19
2023-01-22T14:43:47.312Z,88.92
2023-01-22T14:46:13.983Z,88.97
2023-01-22T14:48:40.758Z,88.93
2023-01-22T14:51:10.060Z,89.12
2023-01-22T14:53:37.956Z,89.42
2023-01-22T14:56:05.283Z,89.39
2023-01-22T14:58:32.254Z,89.27
2023-01-22T15:00:58.939Z,89.37
2023-01-22T15:03:29.413Z,89.38
2023-01-22T15:05:56.307Z,89.41
2023-01-22T15:08:23.144Z,89.69
2023-01-22T15:10:49.823Z,89.92
2023-01-22T15:13:17.073Z,90.01
2023-01-22T15:15:44.106Z,89.98
2023-01-22T15:18:10.776Z,90.22
2023-01-22T15:20:38.411Z,89.95
2023-01-22T15:23:05.091Z,90.02
2023-01-22T15:25:32.372Z,90.10
2023-01-22T15:27:59.339Z,90.07
2023-01-22T15:30:26.447Z,90.33
2023-01-22T15:32:53.155Z,90.35
2023-01-22T15:35:20.301Z,90.75
2023-01-22T15:37:48.531Z,90.30
2023-01-22T15:40:15.847Z,90.77
2023-01-22T15:42:42.747Z,90.70
2023-01-22T15:45:10.391Z,90.58
2023-01-22T15:47:37.075Z,91.03
2023-01-22T15:50:05.093Z,90.95
2023-01-22T15:52:31.796Z,91.16
2023-01-22T15:54:58.468Z,91.20
2023-01-22T15:57:25.324Z,91.13
2023-01-22T15:59:52.085Z,91.19
2023-01-22T16:02:19.058Z,91.12
2023-01-22T16:04:46.067Z,91.14
2023-01-22T16:07:12.761Z,91.27
2023-01-22T16:09:39.488Z,91.60
2023-01-22T16:12:06.661Z,91.34
2023-01-22T16:14:33.437Z,91.61
2023-01-22T16:17:00.724Z,91.72
2023-01-22T16:19:27.685Z,91.74
2023-01-22T16:21:54.359Z,91.80
2023-01-22T16:24:21.075Z,92.00
2023-01-22T16:26:47.954Z,91.74
2023-01-22T16:29:14.626Z,92.15
2023-01-22T16:31:41.446Z,92.24
2023-01-22T16:34:18.167Z,92.16
2023-01-22T16:36:45.530Z,92.32
2023-01-22T16:39:23.355Z,91.99
2023-01-22T16:41:51.650Z,91.96
2023-01-22T16:44:24.688Z,92.45
2023-01-22T16:46:54.441Z,92.22
2023-01-22T16:49:30.454Z,92.59
2023-01-22T16:52:05.065Z,92.14
2023-01-22T16:54:38.364Z,92.31
2023-01-22T16:57:07.177Z,92.61
2023-01-22T16:59:35.736Z,92.38
2023-01-22T17:02:05.267Z,92.51
2023-01-22T17:04:32.152Z,92.54
2023-01-22T17:06:59.749Z,92.68
2023-01-22T17:09:29.555Z,92.62
2023-01-22T17:11:59.123Z,92.79
2023-01-22T17:14:28.619Z,93.07
2023-01-22T17:16:56.286Z,92.85
2023-01-22T17:19:23.146Z,92.83
2023-01-22T17:21:51.985Z,92.85
2023-01-22T17:24:19.195Z,93.21
2023-01-22T17:26:47.976Z,93.15
2023-01-22T17:29:14.867Z,93.25
2023-01-22T17:31:41.966Z,93.36
2023-01-22T17:34:11.091Z,93.14
2023-01-22T17:36:41.558Z,93.48
2023-01-22T17:39:16.390Z,93.54
2023-01-22T17:41:44.142Z,93.23
2023-01-22T17:44:11.937Z,93.51
2023-01-22T17:46:39.789Z,93.53
2023-01-22T17:49:06.936Z,93.65
2023-01-22T17:51:35.129Z,93.71
2023-01-22T17:54:04.229Z,93.75
2023-01-22T17:56:36.594Z,93.70
2023-01-22T17:59:06.345Z,93.74
2023-01-22T18:01:35.171Z,93.69
2023-01-22T18:04:06.273Z,93.97
2023-01-22T18:06:33.829Z,93.57
2023-01-22T18:09:00.873Z,93.88
2023-01-22T18:11:31.239Z,93.81
2023-01-22T18:14:04.334Z,93.77
2023-01-22T18:16:36.965Z,94.15
2023-01-22T18:19:06.144Z,94.27
2023-01-22T18:21:33.620Z,94.08
2023-01-22T18:24:02.977Z,94.10
2023-01-22T18:26:30.310Z,94.40
2023-01-22T18:28:58.871Z,94.13
2023-01-22T18:31:27.640Z,94.56
2023-01-22T18:33:57.312Z,94.68
2023-01-22T18:36:26.658Z,94.70
2023-01-22T18:38:53.984Z,94.43
2023-01-22T18:41:25.324Z,94.67
2023-01-22T18:44:04.457Z,94.60
2023-01-22T18:46:45.312Z,94.57
2023-01-22T18:49:15.499Z,94.73
2023-01-22T18:51:45.003Z,94.62
2023-01-22T18:54:12.009Z,95.03
2023-01-22T18:56:39.430Z,94.88
2023-01-22T18:59:06.518Z,95.07
2023-01-22T19:01:36.034Z,94.83
2023-01-22T19:04:05.549Z,95.00
2023-01-22T19:06:37.128Z,94.84
2023-01-22T19:09:14.383Z,95.11
2023-01-22T19:11:47.185Z,95.02
2023-01-22T19:14:16.988Z,94.88
2023-01-22T19:16:45.068Z,94.88
2023-01-22T19:19:13.640Z,94.84
2023-01-22T19:21:47.264Z,95.02
2023-01-22T19:24:16.550Z,95.20
2023-01-22T19:26:46.604Z,95.18
2023-01-22T19:29:17.745Z,94.98
2023-01-22T19:31:47.742Z,95.00
2023-01-22T19:34:23.383Z,94.89
2023-01-22T19:36:55.962Z,94.90
2023-01-22T19:39:25.501Z,95.21
2023-01-22T19:41:52.225Z,95.28
2023-01-22T19:44:18.870Z,95.22
2023-01-22T19:46:45.758Z,95.28
2023-01-22T19:49:13.107Z,95.24
2023-01-22T19:51:40.244Z,95.12
2023-01-22T19:54:07.578Z,95.01
2023-01-22T19:56:36.507Z,94.88
2023-01-22T19:59:11.930Z,95.38
2023-01-22T20:01:39.364Z,95.08
2023-01-22T20:04:12.763Z,95.48
2023-01-22T20:06:40.192Z,95.34
2023-01-22T20:09:07.283Z,95.30
2023-01-22T20:11:34.073Z,95.46
2023-01-22T20:14:00.913Z,95.16
2023-01-22T20:16:29.314Z,95.41
2023-01-22T20:18:57.571Z,95.66
2023-01-22T20:21:27.197Z,95.71
2023-01-22T20:23:54.458Z,95.26
2023-01-22T20:26:23.633Z,95.25
2023-01-22T20:28:51.118Z,95.61
2023-01-22T20:31:23.363Z,95.41
2023-01-22T20:33:52.826Z,95.83
2023-01-22T20:36:21.199Z,95.55
2023-01-22T20:38:52.630Z,95.79
2023-01-22T20:41:21.098Z,95.92
2023-01-22T20:43:48.460Z,95.50
2023-01-22T20:46:21.772Z,95.73
2023-01-22T20:48:49.343Z,95.59
2023-01-22T20:51:18.971Z,95.33
2023-01-22T20:53:47.193Z,95.62
2023-01-22T20:56:17.043Z,95.24
2023-01-22T20:58:43.775Z,95.55
2023-01-22T21:01:17.267Z,95.19
2023-01-22T21:03:44.299Z,95.19
2023-01-22T21:06:14.128Z,95.22
2023-01-22T21:08:42.102Z,95.24
2023-01-22T21:11:12.241Z,95.39
2023-01-22T21:13:39.410Z,95.67
2023-01-22T21:16:08.824Z,95.33
2023-01-22T21:18:35.968Z,95.49
2023-01-22T21:21:05.005Z,95.66
2023-01-22T21:23:32.109Z,95.29
2023-01-22T21:26:04.913Z,95.10
2023-01-22T21:28:31.591Z,95.16
2023-01-22T21:31:15.452Z,95.39
2023-01-22T21:33:43.784Z,95.21
2023-01-22T21:36:11.711Z,95.53
2023-01-22T21:38:39.175Z,95.36
2023-01-22T21:41:12.636Z,95.15
2023-01-22T21:44:00.449Z,95.48
2023-01-22T21:46:28.953Z,95.17
2023-01-22T21:49:02.869Z,95.46
2023-01-22T21:51:30.091Z,95.53
2023-01-22T21:53:58.327Z,95.34
2023-01-22T21:56:26.692Z,95.08
2023-01-22T21:58:53.377Z,95.12
2023-01-22T22:01:22.226Z,95.19
2023-01-22T22:03:49.446Z,95.22
2023-01-22T22:06:16.343Z,95.57
2023-01-22T22:08:44.406Z,95.17
2023-01-22T22:11:14.136Z,95.12
2023-01-22T22:13:41.133Z,95.39
2023-01-22T22:16:08.704Z,95.54
2023-01-22T22:18:36.107Z,95.07
2023-01-22T22:21:05.485Z,95.43
2023-01-22T22:23:32.478Z,95.22
2023-01-22T22:25:59.698Z,95.51
2023-01-22T22:28:27.083Z,95.07
2023-01-22T22:30:53.840Z,95.07
2023-01-22T22:33:20.636Z,95.24
2023-01-22T22:35:47.732Z,95.06
2023-01-22T22:38:14.874Z,95.38
2023-01-22T22:40:42.045Z,95.37
2023-01-22T22:43:09.137Z,95.32
2023-01-22T22:45:37.874Z,95.51
2023-01-22T22:48:05.973Z,95.32
2023-01-22T22:50:32.833Z,95.31
2023-01-22T22:52:59.561Z,95.05
2023-01-22T22:55:28.829Z,94.93
2023-01-22T22:57:55.561Z,94.86
2023-01-22T23:00:22.559Z,95.20
2023-01-22T23:02:49.565Z,94.87
2023-01-22T23:05:16.304Z,95.02
2023-01-22T23:07:45.543Z,94.93
2023-01-22T23:10:28.946Z,95.24
2023-01-22T23:12:58.173Z,95.13
2023-01-22T23:15:26.861Z,95.20
2023-01-22T23:17:55.423Z,95.03
2023-01-22T23:20:24.889Z,95.16
2023-01-22T23:22:58.588Z,94.77
2023-01-22T23:25:25.911Z,94.87
2023-01-22T23:27:52.743Z,95.04
2023-01-22T23:30:20.035Z,95.14
2023-01-22T23:32:46.948Z,95.07
2023-01-22T23:35:13.659Z,95.11
2023-01-22T23:37:40.452Z,95.03
2023-01-22T23:40:07.788Z,95.10
2023-01-22T23:42:34.430Z,94.57
2023-01-22T23:45:02.981Z,94.83
2023-01-22T23:47:31.083Z,94.93
2023-01-22T23:49:57.861Z,94.85
2023-01-22T23:52:24.701Z,94.84
2023-01-22T23:54:51.353Z,94.86
2023-01-22T23:57:18.166Z,95.05
2023-01-22T23:59:45.259Z,94.63
